sensor_id;sensor_type;location;lat;lon;timestamp;pressure;altitude;pressure_sealevel;temperature;humidity
26657;BME280;14279;50.010;8.260;2022-07-21T00:00:24;100556.44;;;23.62;78.35
26657;BME280;14279;50.010;8.260;2022-07-21T00:02:51;100567.31;;;23.68;77.79
26657;BME280;14279;50.010;8.260;2022-07-21T00:05:17;100565.34;;;23.70;77.58
26657;BME280;14279;50.010;8.260;2022-07-21T00:07:43;100571.88;;;23.76;77.39
26657;BME280;14279;50.010;8.260;2022-07-21T00:10:09;100574.63;;;23.66;79.11
26657;BME280;14279;50.010;8.260;2022-07-21T00:12:34;100573.09;;;23.82;78.20
26657;BME280;14279;50.010;8.260;2022-07-21T00:15:00;100575.19;;;23.96;76.09
26657;BME280;14279;50.010;8.260;2022-07-21T00:17:25;100585.91;;;23.86;76.76
26657;BME280;14279;50.010;8.260;2022-07-21T00:19:50;100591.94;;;23.70;77.04
26657;BME280;14279;50.010;8.260;2022-07-21T00:22:16;100593.91;;;23.68;77.18
26657;BME280;14279;50.010;8.260;2022-07-21T00:24:41;100601.50;;;23.81;77.33
26657;BME280;14279;50.010;8.260;2022-07-21T00:27:06;100596.19;;;23.81;77.28
26657;BME280;14279;50.010;8.260;2022-07-21T00:29:32;100594.94;;;23.76;76.68
26657;BME280;14279;50.010;8.260;2022-07-21T00:31:57;100594.81;;;23.77;77.08
26657;BME280;14279;50.010;8.260;2022-07-21T00:34:25;100590.19;;;23.79;76.17
26657;BME280;14279;50.010;8.260;2022-07-21T00:36:50;100592.22;;;23.67;77.42
26657;BME280;14279;50.010;8.260;2022-07-21T00:39:15;100591.69;;;23.64;78.01
26657;BME280;14279;50.010;8.260;2022-07-21T00:41:40;100591.38;;;23.67;77.25
26657;BME280;14279;50.010;8.260;2022-07-21T00:44:06;100585.22;;;23.48;78.68
26657;BME280;14279;50.010;8.260;2022-07-21T00:46:31;100591.00;;;23.44;79.26
26657;BME280;14279;50.010;8.260;2022-07-21T00:48:56;100592.09;;;23.41;78.43
26657;BME280;14279;50.010;8.260;2022-07-21T00:51:22;100592.28;;;23.39;78.06
26657;BME280;14279;50.010;8.260;2022-07-21T00:53:47;100586.50;;;23.44;78.54
26657;BME280;14279;50.010;8.260;2022-07-21T00:56:12;100579.47;;;23.25;79.00
26657;BME280;14279;50.010;8.260;2022-07-21T00:58:40;100575.34;;;23.40;78.35
26657;BME280;14279;50.010;8.260;2022-07-21T01:01:05;100579.81;;;23.40;78.14
26657;BME280;14279;50.010;8.260;2022-07-21T01:03:30;100579.06;;;23.48;78.13
26657;BME280;14279;50.010;8.260;2022-07-21T01:05:57;100594.41;;;23.54;77.48
26657;BME280;14279;50.010;8.260;2022-07-21T01:08:23;100607.00;;;23.52;77.87
26657;BME280;14279;50.010;8.260;2022-07-21T01:10:48;100606.59;;;23.29;78.29
26657;BME280;14279;50.010;8.260;2022-07-21T01:13:13;100602.63;;;23.05;80.05
26657;BME280;14279;50.010;8.260;2022-07-21T01:15:38;100610.31;;;23.08;78.79
26657;BME280;14279;50.010;8.260;2022-07-21T01:18:04;100607.94;;;23.05;79.83
26657;BME280;14279;50.010;8.260;2022-07-21T01:20:33;100609.16;;;23.10;79.32
26657;BME280;14279;50.010;8.260;2022-07-21T01:23:03;100621.53;;;22.92;80.45
26657;BME280;14279;50.010;8.260;2022-07-21T01:25:28;100621.41;;;22.84;81.33
26657;BME280;14279;50.010;8.260;2022-07-21T01:27:53;100620.31;;;22.76;82.27
26657;BME280;14279;50.010;8.260;2022-07-21T01:30:19;100626.09;;;22.62;83.70
26657;BME280;14279;50.010;8.260;2022-07-21T01:32:44;100625.69;;;22.57;84.34
26657;BME280;14279;50.010;8.260;2022-07-21T01:35:13;100624.44;;;22.51;85.47
26657;BME280;14279;50.010;8.260;2022-07-21T01:37:42;100644.41;;;22.26;86.46
26657;BME280;14279;50.010;8.260;2022-07-21T01:40:09;100633.09;;;21.94;84.12
26657;BME280;14279;50.010;8.260;2022-07-21T01:42:53;100645.25;;;21.97;80.78
26657;BME280;14279;50.010;8.260;2022-07-21T01:45:19;100638.53;;;21.92;75.76
26657;BME280;14279;50.010;8.260;2022-07-21T01:47:45;100642.97;;;21.92;74.39
26657;BME280;14279;50.010;8.260;2022-07-21T01:50:10;100642.59;;;21.87;73.28
26657;BME280;14279;50.010;8.260;2022-07-21T01:52:35;100641.03;;;21.94;73.74
26657;BME280;14279;50.010;8.260;2022-07-21T01:55:01;100665.00;;;21.63;74.31
26657;BME280;14279;50.010;8.260;2022-07-21T01:57:26;100667.38;;;21.66;73.96
26657;BME280;14279;50.010;8.260;2022-07-21T01:59:51;100665.84;;;21.73;73.88
26657;BME280;14279;50.010;8.260;2022-07-21T02:02:16;100671.28;;;21.72;73.06
26657;BME280;14279;50.010;8.260;2022-07-21T02:04:46;100655.66;;;21.69;71.91
26657;BME280;14279;50.010;8.260;2022-07-21T02:07:11;100658.56;;;21.66;72.35
26657;BME280;14279;50.010;8.260;2022-07-21T02:09:36;100657.75;;;21.75;72.53
26657;BME280;14279;50.010;8.260;2022-07-21T02:12:02;100655.50;;;21.70;71.66
26657;BME280;14279;50.010;8.260;2022-07-21T02:14:27;100650.66;;;21.85;71.99
26657;BME280;14279;50.010;8.260;2022-07-21T02:16:52;100652.50;;;21.54;70.97
26657;BME280;14279;50.010;8.260;2022-07-21T02:21:43;100650.66;;;21.44;72.54
26657;BME280;14279;50.010;8.260;2022-07-21T02:24:08;100656.78;;;21.66;72.03
26657;BME280;14279;50.010;8.260;2022-07-21T02:26:33;100650.78;;;21.74;71.70
26657;BME280;14279;50.010;8.260;2022-07-21T02:28:59;100657.59;;;21.67;70.50
26657;BME280;14279;50.010;8.260;2022-07-21T02:31:24;100660.66;;;21.62;70.21
26657;BME280;14279;50.010;8.260;2022-07-21T02:33:49;100665.47;;;21.47;70.92
26657;BME280;14279;50.010;8.260;2022-07-21T02:36:15;100660.44;;;21.44;70.95
26657;BME280;14279;50.010;8.260;2022-07-21T02:41:05;100663.41;;;21.60;70.03
26657;BME280;14279;50.010;8.260;2022-07-21T02:43:30;100664.09;;;21.53;68.65
26657;BME280;14279;50.010;8.260;2022-07-21T02:45:56;100666.31;;;21.57;68.73
26657;BME280;14279;50.010;8.260;2022-07-21T02:48:21;100674.72;;;21.62;68.49
26657;BME280;14279;50.010;8.260;2022-07-21T02:53:14;100666.63;;;21.54;67.71
26657;BME280;14279;50.010;8.260;2022-07-21T02:55:42;100674.09;;;21.39;69.37
26657;BME280;14279;50.010;8.260;2022-07-21T03:00:40;100675.75;;;21.40;68.75
26657;BME280;14279;50.010;8.260;2022-07-21T03:03:06;100673.97;;;21.51;68.20
26657;BME280;14279;50.010;8.260;2022-07-21T03:05:33;100666.28;;;21.47;68.22
26657;BME280;14279;50.010;8.260;2022-07-21T03:07:58;100669.88;;;21.37;67.65
26657;BME280;14279;50.010;8.260;2022-07-21T03:10:24;100680.88;;;21.32;67.62
26657;BME280;14279;50.010;8.260;2022-07-21T03:12:49;100680.72;;;21.33;67.73
26657;BME280;14279;50.010;8.260;2022-07-21T03:15:14;100669.06;;;21.36;67.42
26657;BME280;14279;50.010;8.260;2022-07-21T03:17:39;100683.03;;;21.48;67.34
26657;BME280;14279;50.010;8.260;2022-07-21T03:20:05;100694.31;;;21.40;67.25
26657;BME280;14279;50.010;8.260;2022-07-21T03:22:31;100694.13;;;21.32;67.51
26657;BME280;14279;50.010;8.260;2022-07-21T03:24:56;100695.81;;;21.33;67.51
26657;BME280;14279;50.010;8.260;2022-07-21T03:27:21;100701.00;;;21.13;68.27
26657;BME280;14279;50.010;8.260;2022-07-21T03:29:46;100693.03;;;21.04;68.64
26657;BME280;14279;50.010;8.260;2022-07-21T03:32:12;100695.66;;;21.04;68.76
26657;BME280;14279;50.010;8.260;2022-07-21T03:34:37;100708.63;;;21.07;69.01
26657;BME280;14279;50.010;8.260;2022-07-21T03:37:03;100708.91;;;21.04;69.10
26657;BME280;14279;50.010;8.260;2022-07-21T03:39:28;100709.53;;;20.96;69.23
26657;BME280;14279;50.010;8.260;2022-07-21T03:41:53;100709.47;;;21.07;69.27
26657;BME280;14279;50.010;8.260;2022-07-21T03:44:18;100710.38;;;20.96;69.46
26657;BME280;14279;50.010;8.260;2022-07-21T03:46:43;100718.50;;;21.05;69.65
26657;BME280;14279;50.010;8.260;2022-07-21T03:49:09;100715.72;;;21.06;69.73
26657;BME280;14279;50.010;8.260;2022-07-21T03:51:34;100720.72;;;20.99;69.84
26657;BME280;14279;50.010;8.260;2022-07-21T03:53:59;100737.53;;;21.20;69.40
26657;BME280;14279;50.010;8.260;2022-07-21T03:56:27;100724.47;;;21.28;68.96
26657;BME280;14279;50.010;8.260;2022-07-21T03:58:52;100731.97;;;21.23;69.02
26657;BME280;14279;50.010;8.260;2022-07-21T04:01:17;100733.38;;;21.27;69.20
26657;BME280;14279;50.010;8.260;2022-07-21T04:03:43;100730.88;;;21.25;69.45
26657;BME280;14279;50.010;8.260;2022-07-21T04:06:08;100727.88;;;21.40;69.63
26657;BME280;14279;50.010;8.260;2022-07-21T04:08:36;100736.63;;;21.30;70.40
26657;BME280;14279;50.010;8.260;2022-07-21T04:11:01;100732.97;;;21.31;70.37
26657;BME280;14279;50.010;8.260;2022-07-21T04:13:27;100726.38;;;21.47;69.99
26657;BME280;14279;50.010;8.260;2022-07-21T04:15:52;100730.84;;;21.56;69.85
26657;BME280;14279;50.010;8.260;2022-07-21T04:18:17;100735.25;;;21.36;71.28
26657;BME280;14279;50.010;8.260;2022-07-21T04:20:43;100739.09;;;21.22;72.04
26657;BME280;14279;50.010;8.260;2022-07-21T04:23:08;100742.09;;;21.39;70.86
26657;BME280;14279;50.010;8.260;2022-07-21T04:25:33;100738.56;;;21.28;71.62
26657;BME280;14279;50.010;8.260;2022-07-21T04:27:58;100737.25;;;21.23;72.26
26657;BME280;14279;50.010;8.260;2022-07-21T04:30:24;100733.38;;;21.27;70.21
26657;BME280;14279;50.010;8.260;2022-07-21T04:32:49;100735.41;;;21.44;69.78
26657;BME280;14279;50.010;8.260;2022-07-21T04:35:15;100731.44;;;21.29;68.85
26657;BME280;14279;50.010;8.260;2022-07-21T04:37:40;100745.13;;;21.34;68.75
26657;BME280;14279;50.010;8.260;2022-07-21T04:40:08;100738.56;;;21.28;69.03
26657;BME280;14279;50.010;8.260;2022-07-21T04:42:34;100739.91;;;21.23;68.48
26657;BME280;14279;50.010;8.260;2022-07-21T04:45:00;100739.13;;;21.32;68.79
26657;BME280;14279;50.010;8.260;2022-07-21T04:47:25;100744.63;;;21.40;68.13
26657;BME280;14279;50.010;8.260;2022-07-21T04:49:51;100742.56;;;21.54;67.65
26657;BME280;14279;50.010;8.260;2022-07-21T04:52:16;100736.88;;;21.58;67.75
26657;BME280;14279;50.010;8.260;2022-07-21T04:54:41;100751.97;;;21.37;68.57
26657;BME280;14279;50.010;8.260;2022-07-21T04:57:07;100757.22;;;21.58;68.88
26657;BME280;14279;50.010;8.260;2022-07-21T04:59:33;100750.06;;;21.70;67.50
26657;BME280;14279;50.010;8.260;2022-07-21T05:01:59;100751.97;;;21.99;66.63
26657;BME280;14279;50.010;8.260;2022-07-21T05:04:26;100752.81;;;22.09;66.05
26657;BME280;14279;50.010;8.260;2022-07-21T05:06:51;100756.81;;;21.94;65.27
26657;BME280;14279;50.010;8.260;2022-07-21T05:09:16;100761.81;;;21.77;66.46
26657;BME280;14279;50.010;8.260;2022-07-21T05:11:42;100761.50;;;21.49;66.90
26657;BME280;14279;50.010;8.260;2022-07-21T05:14:07;100763.25;;;21.39;66.57
26657;BME280;14279;50.010;8.260;2022-07-21T05:16:32;100766.38;;;21.65;66.77
26657;BME280;14279;50.010;8.260;2022-07-21T05:18:57;100764.69;;;21.64;66.25
26657;BME280;14279;50.010;8.260;2022-07-21T05:21:23;100766.56;;;21.52;67.52
26657;BME280;14279;50.010;8.260;2022-07-21T05:23:49;100769.16;;;21.42;68.03
26657;BME280;14279;50.010;8.260;2022-07-21T05:26:17;100768.41;;;21.61;67.57
26657;BME280;14279;50.010;8.260;2022-07-21T05:28:42;100762.34;;;21.71;67.25
26657;BME280;14279;50.010;8.260;2022-07-21T05:31:08;100767.63;;;21.50;67.90
26657;BME280;14279;50.010;8.260;2022-07-21T05:33:34;100772.34;;;21.67;67.75
26657;BME280;14279;50.010;8.260;2022-07-21T05:36:00;100760.66;;;21.70;67.11
26657;BME280;14279;50.010;8.260;2022-07-21T05:38:25;100761.97;;;21.95;66.67
26657;BME280;14279;50.010;8.260;2022-07-21T05:40:51;100759.88;;;21.89;66.53
26657;BME280;14279;50.010;8.260;2022-07-21T05:43:16;100768.59;;;22.11;65.92
26657;BME280;14279;50.010;8.260;2022-07-21T05:45:41;100768.94;;;21.96;65.52
26657;BME280;14279;50.010;8.260;2022-07-21T05:48:07;100758.78;;;21.91;66.98
26657;BME280;14279;50.010;8.260;2022-07-21T05:50:32;100774.31;;;21.65;67.51
26657;BME280;14279;50.010;8.260;2022-07-21T05:52:57;100768.69;;;21.99;66.27
26657;BME280;14279;50.010;8.260;2022-07-21T05:55:23;100771.47;;;21.98;65.48
26657;BME280;14279;50.010;8.260;2022-07-21T05:57:48;100779.31;;;22.19;65.57
26657;BME280;14279;50.010;8.260;2022-07-21T06:00:14;100786.31;;;22.20;65.79
26657;BME280;14279;50.010;8.260;2022-07-21T06:02:40;100787.84;;;22.13;65.85
26657;BME280;14279;50.010;8.260;2022-07-21T06:05:06;100793.34;;;21.59;67.10
26657;BME280;14279;50.010;8.260;2022-07-21T06:07:33;100782.63;;;21.91;66.33
26657;BME280;14279;50.010;8.260;2022-07-21T06:09:58;100776.59;;;21.89;66.46
26657;BME280;14279;50.010;8.260;2022-07-21T06:12:25;100777.91;;;22.05;66.45
26657;BME280;14279;50.010;8.260;2022-07-21T06:14:51;100774.44;;;22.04;66.54
26657;BME280;14279;50.010;8.260;2022-07-21T06:17:16;100778.34;;;22.10;65.66
26657;BME280;14279;50.010;8.260;2022-07-21T06:19:41;100771.34;;;21.99;66.57
26657;BME280;14279;50.010;8.260;2022-07-21T06:22:07;100777.19;;;22.03;65.97
26657;BME280;14279;50.010;8.260;2022-07-21T06:24:32;100788.72;;;21.82;66.41
26657;BME280;14279;50.010;8.260;2022-07-21T06:26:57;100789.09;;;21.68;66.79
26657;BME280;14279;50.010;8.260;2022-07-21T06:29:23;100787.59;;;21.54;67.71
26657;BME280;14279;50.010;8.260;2022-07-21T06:31:49;100796.41;;;21.54;67.17
26657;BME280;14279;50.010;8.260;2022-07-21T06:34:14;100801.28;;;21.59;67.25
26657;BME280;14279;50.010;8.260;2022-07-21T06:36:39;100808.38;;;21.80;67.00
26657;BME280;14279;50.010;8.260;2022-07-21T06:39:05;100803.59;;;21.73;67.59
26657;BME280;14279;50.010;8.260;2022-07-21T06:41:30;100804.97;;;21.99;66.31
26657;BME280;14279;50.010;8.260;2022-07-21T06:43:55;100820.72;;;22.00;65.73
26657;BME280;14279;50.010;8.260;2022-07-21T06:46:21;100817.91;;;21.92;66.17
26657;BME280;14279;50.010;8.260;2022-07-21T06:48:46;100813.06;;;22.07;65.38
26657;BME280;14279;50.010;8.260;2022-07-21T06:51:11;100814.47;;;22.62;63.81
26657;BME280;14279;50.010;8.260;2022-07-21T06:53:36;100810.81;;;22.43;63.35
26657;BME280;14279;50.010;8.260;2022-07-21T06:56:02;100807.63;;;22.49;64.06
26657;BME280;14279;50.010;8.260;2022-07-21T06:58:27;100812.66;;;22.82;63.02
26657;BME280;14279;50.010;8.260;2022-07-21T07:00:52;100815.22;;;22.33;64.24
26657;BME280;14279;50.010;8.260;2022-07-21T07:03:18;100810.94;;;22.51;63.27
26657;BME280;14279;50.010;8.260;2022-07-21T07:05:45;100810.28;;;22.59;63.37
26657;BME280;14279;50.010;8.260;2022-07-21T07:08:11;100818.38;;;22.77;62.85
26657;BME280;14279;50.010;8.260;2022-07-21T07:10:36;100818.94;;;23.01;61.96
26657;BME280;14279;50.010;8.260;2022-07-21T07:13:02;100815.97;;;23.14;61.79
26657;BME280;14279;50.010;8.260;2022-07-21T07:15:28;100827.31;;;23.16;61.98
26657;BME280;14279;50.010;8.260;2022-07-21T07:17:53;100833.13;;;23.49;60.27
26657;BME280;14279;50.010;8.260;2022-07-21T07:20:19;100826.81;;;23.50;60.15
26657;BME280;14279;50.010;8.260;2022-07-21T07:22:44;100826.88;;;23.30;60.17
26657;BME280;14279;50.010;8.260;2022-07-21T07:25:10;100827.56;;;23.12;60.33
26657;BME280;14279;50.010;8.260;2022-07-21T07:27:35;100827.34;;;22.86;60.81
26657;BME280;14279;50.010;8.260;2022-07-21T07:30:01;100831.25;;;22.72;61.99
26657;BME280;14279;50.010;8.260;2022-07-21T07:32:26;100830.38;;;22.91;61.07
26657;BME280;14279;50.010;8.260;2022-07-21T07:34:51;100826.19;;;22.99;60.71
26657;BME280;14279;50.010;8.260;2022-07-21T07:37:17;100836.38;;;22.84;61.07
26657;BME280;14279;50.010;8.260;2022-07-21T07:39:42;100828.84;;;22.99;61.25
26657;BME280;14279;50.010;8.260;2022-07-21T07:42:07;100829.97;;;23.25;60.02
26657;BME280;14279;50.010;8.260;2022-07-21T07:44:33;100819.81;;;23.49;59.33
26657;BME280;14279;50.010;8.260;2022-07-21T07:46:58;100818.63;;;23.33;59.29
26657;BME280;14279;50.010;8.260;2022-07-21T07:49:26;100821.56;;;23.30;59.13
26657;BME280;14279;50.010;8.260;2022-07-21T07:51:52;100834.44;;;23.35;58.92
26657;BME280;14279;50.010;8.260;2022-07-21T07:54:17;100838.41;;;23.68;57.26
26657;BME280;14279;50.010;8.260;2022-07-21T07:56:42;100836.19;;;23.54;57.17
26657;BME280;14279;50.010;8.260;2022-07-21T07:59:07;100836.75;;;23.48;58.12
26657;BME280;14279;50.010;8.260;2022-07-21T08:01:33;100833.00;;;23.50;58.84
26657;BME280;14279;50.010;8.260;2022-07-21T08:03:58;100830.25;;;23.70;58.74
26657;BME280;14279;50.010;8.260;2022-07-21T08:06:24;100821.19;;;24.00;58.23
26657;BME280;14279;50.010;8.260;2022-07-21T08:08:49;100830.16;;;23.99;57.45
26657;BME280;14279;50.010;8.260;2022-07-21T08:11:14;100832.41;;;24.04;57.10
26657;BME280;14279;50.010;8.260;2022-07-21T08:13:40;100832.81;;;24.27;56.61
26657;BME280;14279;50.010;8.260;2022-07-21T08:16:06;100830.72;;;24.31;55.24
26657;BME280;14279;50.010;8.260;2022-07-21T08:18:31;100814.22;;;23.99;56.53
26657;BME280;14279;50.010;8.260;2022-07-21T08:20:56;100818.06;;;24.33;55.73
26657;BME280;14279;50.010;8.260;2022-07-21T08:23:22;100817.19;;;24.60;55.00
26657;BME280;14279;50.010;8.260;2022-07-21T08:25:47;100829.06;;;24.66;54.63
26657;BME280;14279;50.010;8.260;2022-07-21T08:28:12;100816.47;;;23.94;56.35
26657;BME280;14279;50.010;8.260;2022-07-21T08:30:38;100819.00;;;23.86;56.77
26657;BME280;14279;50.010;8.260;2022-07-21T08:33:04;100809.84;;;23.70;56.66
26657;BME280;14279;50.010;8.260;2022-07-21T08:35:30;100822.66;;;23.47;58.14
26657;BME280;14279;50.010;8.260;2022-07-21T08:38:04;100806.63;;;23.67;58.24
26657;BME280;14279;50.010;8.260;2022-07-21T08:40:32;100804.72;;;23.87;57.56
26657;BME280;14279;50.010;8.260;2022-07-21T08:42:58;100809.44;;;24.03;57.27
26657;BME280;14279;50.010;8.260;2022-07-21T08:45:24;100817.09;;;24.34;55.45
26657;BME280;14279;50.010;8.260;2022-07-21T08:47:52;100811.38;;;24.11;55.76
26657;BME280;14279;50.010;8.260;2022-07-21T08:50:18;100806.28;;;24.17;55.62
26657;BME280;14279;50.010;8.260;2022-07-21T08:52:43;100807.50;;;23.95;55.72
26657;BME280;14279;50.010;8.260;2022-07-21T08:55:08;100803.00;;;23.96;53.89
26657;BME280;14279;50.010;8.260;2022-07-21T08:57:34;100793.91;;;24.26;53.83
26657;BME280;14279;50.010;8.260;2022-07-21T09:00:03;100803.28;;;24.49;54.07
26657;BME280;14279;50.010;8.260;2022-07-21T09:02:31;100802.56;;;24.28;54.03
26657;BME280;14279;50.010;8.260;2022-07-21T09:04:57;100790.47;;;24.34;53.16
26657;BME280;14279;50.010;8.260;2022-07-21T09:07:23;100795.38;;;24.75;52.52
26657;BME280;14279;50.010;8.260;2022-07-21T09:09:56;100788.78;;;24.79;51.52
26657;BME280;14279;50.010;8.260;2022-07-21T09:12:22;100789.44;;;24.63;52.64
26657;BME280;14279;50.010;8.260;2022-07-21T09:14:47;100781.66;;;24.70;51.90
26657;BME280;14279;50.010;8.260;2022-07-21T09:17:16;100780.84;;;24.69;52.18
26657;BME280;14279;50.010;8.260;2022-07-21T09:19:44;100788.38;;;24.74;51.83
26657;BME280;14279;50.010;8.260;2022-07-21T09:22:18;100781.06;;;24.94;51.39
26657;BME280;14279;50.010;8.260;2022-07-21T09:24:48;100783.66;;;24.50;51.76
26657;BME280;14279;50.010;8.260;2022-07-21T09:27:21;100780.31;;;24.66;51.72
26657;BME280;14279;50.010;8.260;2022-07-21T09:29:48;100783.81;;;24.84;49.78
26657;BME280;14279;50.010;8.260;2022-07-21T09:35:09;100783.47;;;25.05;49.25
26657;BME280;14279;50.010;8.260;2022-07-21T09:37:36;100775.94;;;24.74;49.65
26657;BME280;14279;50.010;8.260;2022-07-21T09:40:10;100787.38;;;24.93;49.58
26657;BME280;14279;50.010;8.260;2022-07-21T09:42:41;100785.31;;;25.05;49.38
26657;BME280;14279;50.010;8.260;2022-07-21T09:45:11;100792.63;;;24.85;46.64
26657;BME280;14279;50.010;8.260;2022-07-21T09:47:38;100779.75;;;24.44;48.05
26657;BME280;14279;50.010;8.260;2022-07-21T09:50:05;100777.41;;;24.95;48.18
26657;BME280;14279;50.010;8.260;2022-07-21T09:52:37;100777.81;;;25.09;46.94
26657;BME280;14279;50.010;8.260;2022-07-21T09:55:08;100778.44;;;25.47;46.77
26657;BME280;14279;50.010;8.260;2022-07-21T09:57:34;100781.34;;;25.09;46.36
26657;BME280;14279;50.010;8.260;2022-07-21T10:00:00;100784.72;;;25.19;46.43
26657;BME280;14279;50.010;8.260;2022-07-21T10:02:31;100778.25;;;25.48;45.34
26657;BME280;14279;50.010;8.260;2022-07-21T10:05:03;100783.56;;;25.83;44.87
26657;BME280;14279;50.010;8.260;2022-07-21T10:07:29;100786.25;;;26.26;43.45
26657;BME280;14279;50.010;8.260;2022-07-21T10:09:56;100783.06;;;25.79;44.11
26657;BME280;14279;50.010;8.260;2022-07-21T10:12:22;100771.50;;;25.62;45.41
26657;BME280;14279;50.010;8.260;2022-07-21T10:14:48;100781.22;;;25.80;45.34
26657;BME280;14279;50.010;8.260;2022-07-21T10:17:15;100778.00;;;25.68;44.71
26657;BME280;14279;50.010;8.260;2022-07-21T10:20:08;100773.78;;;25.92;44.91
26657;BME280;14279;50.010;8.260;2022-07-21T10:22:48;100764.50;;;26.13;45.09
26657;BME280;14279;50.010;8.260;2022-07-21T10:25:21;100767.91;;;26.31;43.72
26657;BME280;14279;50.010;8.260;2022-07-21T10:30:45;100771.25;;;25.82;45.54
26657;BME280;14279;50.010;8.260;2022-07-21T10:33:13;100767.16;;;25.61;45.80
26657;BME280;14279;50.010;8.260;2022-07-21T10:35:41;100744.66;;;25.99;44.08
26657;BME280;14279;50.010;8.260;2022-07-21T10:38:25;100751.41;;;26.52;43.49
26657;BME280;14279;50.010;8.260;2022-07-21T10:53:01;100750.13;;;25.97;44.01
26657;BME280;14279;50.010;8.260;2022-07-21T10:58:48;100773.31;;;25.96;43.56
26657;BME280;14279;50.010;8.260;2022-07-21T11:08:15;100740.22;;;26.74;42.59
26657;BME280;14279;50.010;8.260;2022-07-21T11:10:53;100744.56;;;26.50;42.61
26657;BME280;14279;50.010;8.260;2022-07-21T11:25:45;100749.59;;;25.85;43.40
26657;BME280;14279;50.010;8.260;2022-07-21T11:28:19;100744.63;;;26.07;43.05
26657;BME280;14279;50.010;8.260;2022-07-21T11:31:13;100740.81;;;26.01;42.83
26657;BME280;14279;50.010;8.260;2022-07-21T11:33:51;100747.22;;;26.25;42.18
26657;BME280;14279;50.010;8.260;2022-07-21T11:39:58;100734.22;;;26.63;41.49
26657;BME280;14279;50.010;8.260;2022-07-21T11:53:12;100716.97;;;27.15;38.80
26657;BME280;14279;50.010;8.260;2022-07-21T12:02:29;100711.34;;;26.61;39.71
26657;BME280;14279;50.010;8.260;2022-07-21T14:43:45;100666.84;;;29.19;34.68
26657;BME280;14279;50.010;8.260;2022-07-21T14:46:11;100658.47;;;28.77;34.63
26657;BME280;14279;50.010;8.260;2022-07-21T14:48:36;100652.66;;;28.88;34.82
26657;BME280;14279;50.010;8.260;2022-07-21T14:51:01;100655.59;;;28.78;34.67
26657;BME280;14279;50.010;8.260;2022-07-21T14:53:26;100654.81;;;29.30;34.43
26657;BME280;14279;50.010;8.260;2022-07-21T14:55:52;100664.47;;;28.79;34.92
26657;BME280;14279;50.010;8.260;2022-07-21T14:58:17;100653.03;;;28.85;35.07
26657;BME280;14279;50.010;8.260;2022-07-21T15:00:43;100663.16;;;29.05;34.85
26657;BME280;14279;50.010;8.260;2022-07-21T15:03:08;100638.53;;;28.41;35.89
26657;BME280;14279;50.010;8.260;2022-07-21T15:05:33;100639.22;;;28.73;35.70
26657;BME280;14279;50.010;8.260;2022-07-21T15:07:58;100651.38;;;28.61;35.94
26657;BME280;14279;50.010;8.260;2022-07-21T15:10:27;100654.97;;;28.76;36.12
26657;BME280;14279;50.010;8.260;2022-07-21T15:12:52;100661.75;;;28.64;36.29
26657;BME280;14279;50.010;8.260;2022-07-21T15:15:18;100654.22;;;28.44;36.29
26657;BME280;14279;50.010;8.260;2022-07-21T15:17:44;100652.88;;;28.25;36.69
26657;BME280;14279;50.010;8.260;2022-07-21T15:20:10;100658.97;;;28.19;36.56
26657;BME280;14279;50.010;8.260;2022-07-21T15:22:35;100645.16;;;28.30;36.53
26657;BME280;14279;50.010;8.260;2022-07-21T15:25:01;100655.66;;;28.32;35.91
26657;BME280;14279;50.010;8.260;2022-07-21T15:27:27;100643.69;;;28.28;36.37
26657;BME280;14279;50.010;8.260;2022-07-21T15:29:52;100639.56;;;28.17;35.99
26657;BME280;14279;50.010;8.260;2022-07-21T15:32:18;100655.00;;;28.30;36.21
26657;BME280;14279;50.010;8.260;2022-07-21T15:34:46;100645.75;;;28.56;36.04
26657;BME280;14279;50.010;8.260;2022-07-21T15:37:12;100642.06;;;28.57;36.10
26657;BME280;14279;50.010;8.260;2022-07-21T15:39:38;100642.53;;;28.60;35.72
26657;BME280;14279;50.010;8.260;2022-07-21T15:42:07;100624.44;;;28.77;35.33
26657;BME280;14279;50.010;8.260;2022-07-21T15:44:33;100638.38;;;28.73;35.66
26657;BME280;14279;50.010;8.260;2022-07-21T15:46:58;100652.69;;;28.65;35.36
26657;BME280;14279;50.010;8.260;2022-07-21T15:49:23;100640.41;;;28.71;35.55
26657;BME280;14279;50.010;8.260;2022-07-21T15:51:49;100648.25;;;28.57;36.15
26657;BME280;14279;50.010;8.260;2022-07-21T15:54:14;100649.13;;;28.34;36.06
26657;BME280;14279;50.010;8.260;2022-07-21T15:56:39;100652.44;;;28.22;36.33
26657;BME280;14279;50.010;8.260;2022-07-21T15:59:04;100643.53;;;27.74;36.83
26657;BME280;14279;50.010;8.260;2022-07-21T16:01:48;100644.25;;;27.92;36.83
26657;BME280;14279;50.010;8.260;2022-07-21T16:04:14;100651.50;;;27.83;37.27
26657;BME280;14279;50.010;8.260;2022-07-21T16:06:39;100645.66;;;27.56;37.84
26657;BME280;14279;50.010;8.260;2022-07-21T16:09:04;100659.03;;;27.56;37.89
26657;BME280;14279;50.010;8.260;2022-07-21T16:11:30;100636.16;;;27.53;37.67
26657;BME280;14279;50.010;8.260;2022-07-21T16:13:55;100650.56;;;27.75;37.48
26657;BME280;14279;50.010;8.260;2022-07-21T16:16:21;100643.59;;;27.66;37.58
26657;BME280;14279;50.010;8.260;2022-07-21T16:18:46;100647.53;;;27.79;37.53
26657;BME280;14279;50.010;8.260;2022-07-21T16:21:11;100637.19;;;27.99;37.66
26657;BME280;14279;50.010;8.260;2022-07-21T16:23:36;100642.19;;;28.25;37.48
26657;BME280;14279;50.010;8.260;2022-07-21T16:26:02;100641.81;;;28.05;37.56
26657;BME280;14279;50.010;8.260;2022-07-21T16:28:27;100649.31;;;27.86;37.37
26657;BME280;14279;50.010;8.260;2022-07-21T16:30:53;100644.25;;;27.92;37.60
26657;BME280;14279;50.010;8.260;2022-07-21T16:33:18;100648.19;;;27.81;37.93
26657;BME280;14279;50.010;8.260;2022-07-21T16:35:43;100638.66;;;27.55;38.15